Time,TemperatureF,DewpointF,PressureIn,WindDirection,WindDirectionDegrees,WindSpeedMPH,WindSpeedGustMPH,Humidity,HourlyPrecipIn,Conditions,Clouds,dailyrainin,SoftwareType,DateUTC
2013-01-23 00:13:00,56.1,48.0,29.79,WSW,258,0.0,5.0,73,0.00,,,0.00,weatherlink.com 1.10,2013-01-22 22:13:00,
2013-01-23 00:28:00,55.9,47.0,29.79,SSW,194,0.0,2.0,73,0.00,,,0.00,weatherlink.com 1.10,2013-01-22 22:28:00,
2013-01-23 00:43:00,55.3,47.0,29.79,NNW,331,0.0,3.0,74,0.00,,,0.00,weatherlink.com 1.10,2013-01-22 22:43:00,
2013-01-23 00:58:00,54.9,46.0,29.80,WSW,240,0.0,2.0,73,0.00,,,0.00,weatherlink.com 1.10,2013-01-22 22:58:00,
2013-01-23 01:13:00,54.5,47.0,29.80,West,263,0.0,1.0,75,0.00,,,0.00,weatherlink.com 1.10,2013-01-22 23:13:00,
2013-01-23 01:28:00,54.2,47.0,29.80,WNW,286,0.0,3.0,76,0.00,,,0.00,weatherlink.com 1.10,2013-01-22 23:28:00,
2013-01-23 01:43:00,54.2,47.0,29.80,NNE,32,0.0,5.0,76,0.00,,,0.00,weatherlink.com 1.10,2013-01-22 23:43:00,
2013-01-23 01:58:00,54.1,47.0,29.80,NNW,333,2.0,4.0,78,0.00,,,0.00,weatherlink.com 1.10,2013-01-22 23:58:00,
2013-01-23 02:13:00,53.9,47.0,29.80,WNW,296,0.0,1.0,78,0.00,,,0.00,weatherlink.com 1.10,2013-01-23 00:13:00,
2013-01-23 02:28:00,53.5,47.0,29.80,NW,324,0.0,4.0,78,0.00,,,0.00,weatherlink.com 1.10,2013-01-23 00:28:00,
2013-01-23 02:43:00,54.0,47.0,29.80,NW,319,3.0,5.0,76,0.00,,,0.00,weatherlink.com 1.10,2013-01-23 00:43:00,
2013-01-23 02:58:00,53.7,47.0,29.81,NNW,332,1.0,2.0,77,0.00,,,0.00,weatherlink.com 1.10,2013-01-23 00:58:00,
2013-01-23 03:13:00,53.3,47.0,29.81,NNW,329,0.0,0.0,78,0.00,,,0.00,weatherlink.com 1.10,2013-01-23 01:13:00,
2013-01-23 03:28:00,53.3,46.0,29.81,NW,309,0.0,0.0,77,0.00,,,0.00,weatherlink.com 1.10,2013-01-23 01:28:00,
2013-01-23 03:43:00,53.0,46.0,29.81,West,279,0.0,3.0,76,0.00,,,0.00,weatherlink.com 1.10,2013-01-23 01:43:00,
2013-01-23 03:58:00,53.2,45.0,29.81,NNW,331,0.0,4.0,74,0.00,,,0.00,weatherlink.com 1.10,2013-01-23 01:58:00,
2013-01-23 04:13:00,53.3,45.0,29.81,NNW,327,0.0,2.0,73,0.00,,,0.00,weatherlink.com 1.10,2013-01-23 02:13:00,
2013-01-23 04:28:00,53.3,44.0,29.81,NE,34,0.0,3.0,72,0.00,,,0.00,weatherlink.com 1.10,2013-01-23 02:28:00,
2013-01-23 04:43:00,53.6,45.0,29.82,NNW,341,0.0,3.0,73,0.00,,,0.00,weatherlink.com 1.10,2013-01-23 02:43:00,
2013-01-23 04:58:00,53.5,45.0,29.82,NNW,336,0.0,5.0,73,0.00,,,0.00,weatherlink.com 1.10,2013-01-23 02:58:00,
2013-01-23 05:13:00,53.6,45.0,29.82,NNE,23,0.0,4.0,72,0.00,,,0.00,weatherlink.com 1.10,2013-01-23 03:13:00,
2013-01-23 05:28:00,53.3,44.0,29.83,NNW,337,0.0,3.0,72,0.00,,,0.00,weatherlink.com 1.10,2013-01-23 03:28:00,
2013-01-23 05:43:00,53.1,44.0,29.83,WNW,286,0.0,1.0,72,0.00,,,0.00,weatherlink.com 1.10,2013-01-23 03:43:00,
2013-01-23 05:58:00,52.8,44.0,29.84,NNW,338,0.0,6.0,72,0.00,,,0.00,weatherlink.com 1.10,2013-01-23 03:58:00,
2013-01-23 06:13:00,52.5,44.0,29.84,NW,312,0.0,3.0,73,0.00,,,0.00,weatherlink.com 1.10,2013-01-23 04:13:00,
2013-01-23 06:28:00,52.2,44.0,29.84,NNW,340,0.0,2.0,73,0.00,,,0.00,weatherlink.com 1.10,2013-01-23 04:28:00,
2013-01-23 06:43:00,52.4,44.0,29.86,NW,311,0.0,6.0,73,0.00,,,0.00,weatherlink.com 1.10,2013-01-23 04:43:00,
2013-01-23 06:58:00,52.3,44.0,29.86,North,351,1.0,3.0,74,0.00,,,0.00,weatherlink.com 1.10,2013-01-23 04:58:00,
2013-01-23 07:13:00,52.1,44.0,29.86,NNW,346,0.0,7.0,73,0.00,,,0.00,weatherlink.com 1.10,2013-01-23 05:13:00,
2013-01-23 07:28:00,51.9,43.0,29.88,NNW,336,1.0,5.0,73,0.00,,,0.00,weatherlink.com 1.10,2013-01-23 05:28:00,
2013-01-23 07:43:00,52.2,43.0,29.88,North,355,5.0,7.0,72,0.00,,,0.00,weatherlink.com 1.10,2013-01-23 05:43:00,
2013-01-23 07:58:00,52.5,44.0,29.89,North,355,2.0,6.0,72,0.00,,,0.00,weatherlink.com 1.10,2013-01-23 05:58:00,
2013-01-23 08:13:00,52.5,44.0,29.89,NW,304,0.0,5.0,72,0.00,,,0.00,weatherlink.com 1.10,2013-01-23 06:13:00,
2013-01-23 08:28:00,52.3,44.0,29.89,NE,38,0.0,3.0,73,0.00,,,0.00,weatherlink.com 1.10,2013-01-23 06:28:00,
2013-01-23 08:43:00,52.5,43.0,29.90,NNE,19,1.0,6.0,71,0.00,,,0.00,weatherlink.com 1.10,2013-01-23 06:43:00,
2013-01-23 08:58:00,52.4,44.0,29.91,South,175,0.0,4.0,72,0.00,,,0.00,weatherlink.com 1.10,2013-01-23 06:58:00,
2013-01-23 09:13:00,53.7,44.0,29.91,East,90,0.0,3.0,69,0.00,,,0.00,weatherlink.com 1.10,2013-01-23 07:13:00,
2013-01-23 09:29:00,54.1,43.0,29.91,ENE,57,1.0,7.0,66,0.00,,,0.00,weatherlink.com 1.10,2013-01-23 07:29:00,
2013-01-23 09:44:00,54.8,43.0,29.93,NW,320,6.0,10.0,64,0.00,,,0.00,weatherlink.com 1.10,2013-01-23 07:44:00,
2013-01-23 09:59:00,55.4,43.0,29.93,NW,316,0.0,5.0,64,0.00,,,0.00,weatherlink.com 1.10,2013-01-23 07:59:00,
2013-01-23 10:14:00,55.3,42.0,29.93,North,360,2.0,7.0,62,0.00,,,0.00,weatherlink.com 1.10,2013-01-23 08:14:00,
2013-01-23 10:29:00,55.6,43.0,29.93,WNW,292,6.0,12.0,62,0.00,,,0.00,weatherlink.com 1.10,2013-01-23 08:29:00,
2013-01-23 10:44:00,56.0,43.0,29.93,SE,131,1.0,9.0,61,0.00,,,0.00,weatherlink.com 1.10,2013-01-23 08:44:00,
2013-01-23 10:59:00,56.9,42.0,29.95,NNW,340,2.0,5.0,58,0.00,,,0.00,weatherlink.com 1.10,2013-01-23 08:59:00,
2013-01-23 11:14:00,57.3,42.0,29.95,North,9,0.0,4.0,56,0.00,,,0.00,weatherlink.com 1.10,2013-01-23 09:14:00,
2013-01-23 11:29:00,58.1,41.0,29.94,South,184,0.0,5.0,54,0.00,,,0.00,weatherlink.com 1.10,2013-01-23 09:29:00,
2013-01-23 11:44:00,58.2,42.0,29.94,SSW,192,1.0,5.0,55,0.00,,,0.00,weatherlink.com 1.10,2013-01-23 09:44:00,
2013-01-23 11:59:00,58.4,43.0,29.94,SW,229,3.0,7.0,58,0.00,,,0.00,weatherlink.com 1.10,2013-01-23 09:59:00,
2013-01-23 12:14:00,57.9,43.0,29.94,North,5,0.0,5.0,57,0.00,,,0.00,weatherlink.com 1.10,2013-01-23 10:14:00,
2013-01-23 12:29:00,58.3,43.0,29.93,SE,138,0.0,4.0,57,0.00,,,0.00,weatherlink.com 1.10,2013-01-23 10:29:00,
2013-01-23 12:44:00,58.9,43.0,29.93,SW,227,0.0,6.0,55,0.00,,,0.00,weatherlink.com 1.10,2013-01-23 10:44:00,
2013-01-23 12:59:00,58.6,42.0,29.93,NNW,331,4.0,5.0,54,0.00,,,0.00,weatherlink.com 1.10,2013-01-23 10:59:00,
2013-01-23 13:14:00,59.0,42.0,29.93,SSW,205,0.0,4.0,53,0.00,,,0.00,weatherlink.com 1.10,2013-01-23 11:14:00,
2013-01-23 13:29:00,58.1,41.0,29.93,West,279,0.0,5.0,54,0.00,,,0.00,weatherlink.com 1.10,2013-01-23 11:29:00,
2013-01-23 13:44:00,58.2,41.0,29.93,SE,141,1.0,5.0,53,0.00,,,0.00,weatherlink.com 1.10,2013-01-23 11:44:00,
2013-01-23 13:59:00,58.3,41.0,29.93,South,187,1.0,4.0,54,0.00,,,0.00,weatherlink.com 1.10,2013-01-23 11:59:00,
2013-01-23 14:14:00,57.7,41.0,29.93,SSE,168,0.0,7.0,55,0.00,,,0.00,weatherlink.com 1.10,2013-01-23 12:14:00,
2013-01-23 14:29:00,58.1,43.0,29.94,SSW,211,3.0,5.0,57,0.00,,,0.00,weatherlink.com 1.10,2013-01-23 12:29:00,
2013-01-23 14:44:00,58.0,43.0,29.93,WSW,239,2.0,5.0,57,0.00,,,0.00,weatherlink.com 1.10,2013-01-23 12:44:00,
2013-01-23 14:59:00,58.2,42.0,29.94,South,180,0.0,3.0,56,0.00,,,0.00,weatherlink.com 1.10,2013-01-23 12:59:00,
2013-01-23 15:14:00,58.3,42.0,29.94,SSW,194,0.0,3.0,56,0.00,,,0.00,weatherlink.com 1.10,2013-01-23 13:14:00,
2013-01-23 15:29:00,58.2,42.0,29.94,SSW,202,1.0,5.0,56,0.00,,,0.00,weatherlink.com 1.10,2013-01-23 13:29:00,
2013-01-23 15:44:00,57.9,42.0,29.94,SW,215,3.0,4.0,56,0.00,,,0.00,weatherlink.com 1.10,2013-01-23 13:44:00,
2013-01-23 15:59:00,57.7,42.0,29.94,WSW,255,0.0,4.0,57,0.00,,,0.00,weatherlink.com 1.10,2013-01-23 13:59:00,
2013-01-23 16:14:00,57.8,42.0,29.93,SW,218,1.0,5.0,57,0.00,,,0.00,weatherlink.com 1.10,2013-01-23 14:14:00,
2013-01-23 16:29:00,57.7,43.0,29.93,WSW,241,4.0,4.0,58,0.00,,,0.00,weatherlink.com 1.10,2013-01-23 14:29:00,
2013-01-23 16:44:00,57.1,42.0,29.93,SW,231,1.0,7.0,58,0.00,,,0.00,weatherlink.com 1.10,2013-01-23 14:44:00,
2013-01-23 16:59:00,56.6,43.0,29.94,SW,217,1.0,4.0,61,0.00,,,0.00,weatherlink.com 1.10,2013-01-23 14:59:00,
2013-01-23 17:14:00,56.2,42.0,29.94,SSW,213,1.0,5.0,60,0.00,,,0.00,weatherlink.com 1.10,2013-01-23 15:14:00,
2013-01-23 17:29:00,55.7,42.0,29.94,SW,227,0.0,3.0,61,0.00,,,0.00,weatherlink.com 1.10,2013-01-23 15:29:00,
2013-01-23 17:44:00,55.6,43.0,29.94,SW,223,0.0,3.0,62,0.00,,,0.00,weatherlink.com 1.10,2013-01-23 15:44:00,
2013-01-23 17:59:00,55.3,42.0,29.94,SW,225,0.0,3.0,61,0.00,,,0.00,weatherlink.com 1.10,2013-01-23 15:59:00,
2013-01-23 18:14:00,55.4,42.0,29.95,SW,230,0.0,4.0,60,0.00,,,0.00,weatherlink.com 1.10,2013-01-23 16:14:00,
2013-01-23 18:29:00,55.1,42.0,29.95,SW,230,0.0,1.0,61,0.00,,,0.00,weatherlink.com 1.10,2013-01-23 16:29:00,
2013-01-23 18:44:00,55.0,42.0,29.95,SW,230,0.0,0.0,61,0.00,,,0.00,weatherlink.com 1.10,2013-01-23 16:44:00,
2013-01-23 18:59:00,54.9,42.0,29.95,SW,230,0.0,0.0,62,0.00,,,0.00,weatherlink.com 1.10,2013-01-23 16:59:00,
2013-01-23 19:14:00,54.6,43.0,29.95,SW,230,0.0,0.0,64,0.00,,,0.00,weatherlink.com 1.10,2013-01-23 17:14:00,
2013-01-23 19:29:00,54.4,43.0,29.95,SW,230,0.0,0.0,65,0.00,,,0.00,weatherlink.com 1.10,2013-01-23 17:29:00,
2013-01-23 19:44:00,54.1,43.0,29.95,SSE,160,0.0,2.0,66,0.00,,,0.00,weatherlink.com 1.10,2013-01-23 17:44:00,
2013-01-23 19:59:00,54.1,43.0,29.95,SSE,160,0.0,0.0,67,0.00,,,0.00,weatherlink.com 1.10,2013-01-23 17:59:00,
2013-01-23 20:14:00,53.9,43.0,29.95,SSE,160,0.0,0.0,68,0.00,,,0.00,weatherlink.com 1.10,2013-01-23 18:14:00,
2013-01-23 20:29:00,53.7,44.0,29.95,SSE,160,0.0,2.0,70,0.00,,,0.00,weatherlink.com 1.10,2013-01-23 18:29:00,
2013-01-23 20:44:00,53.6,44.0,29.95,SSE,160,0.0,0.0,71,0.00,,,0.00,weatherlink.com 1.10,2013-01-23 18:44:00,
2013-01-23 20:59:00,53.3,44.0,29.95,SSE,160,0.0,0.0,72,0.00,,,0.00,weatherlink.com 1.10,2013-01-23 18:59:00,
2013-01-23 21:14:00,53.1,45.0,29.94,SSE,160,0.0,0.0,73,0.00,,,0.00,weatherlink.com 1.10,2013-01-23 19:14:00,
2013-01-23 21:29:00,53.2,45.0,29.95,SSE,160,0.0,2.0,73,0.00,,,0.00,weatherlink.com 1.10,2013-01-23 19:29:00,
2013-01-23 21:44:00,53.1,45.0,29.95,SSE,160,0.0,1.0,73,0.00,,,0.00,weatherlink.com 1.10,2013-01-23 19:44:00,
2013-01-23 21:59:00,53.3,44.0,29.95,SSE,160,0.0,0.0,72,0.00,,,0.00,weatherlink.com 1.10,2013-01-23 19:59:00,
2013-01-23 22:14:00,53.1,44.0,29.95,SSE,160,0.0,1.0,72,0.00,,,0.00,weatherlink.com 1.10,2013-01-23 20:14:00,
2013-01-23 22:29:00,53.2,44.0,29.95,SSE,160,0.0,1.0,71,0.00,,,0.00,weatherlink.com 1.10,2013-01-23 20:29:00,
2013-01-23 22:44:00,53.3,45.0,29.95,SSE,160,0.0,1.0,73,0.00,,,0.00,weatherlink.com 1.10,2013-01-23 20:44:00,
2013-01-23 22:59:00,53.4,45.0,29.95,SSE,160,0.0,0.0,73,0.00,,,0.00,weatherlink.com 1.10,2013-01-23 20:59:00,
2013-01-23 23:14:00,53.2,45.0,29.95,SSE,160,0.0,0.0,74,0.00,,,0.00,weatherlink.com 1.10,2013-01-23 21:14:00,
2013-01-23 23:29:00,53.0,45.0,29.95,SSE,160,0.0,0.0,75,0.00,,,0.00,weatherlink.com 1.10,2013-01-23 21:29:00,
2013-01-23 23:59:00,53.0,46.0,29.95,SSE,160,0.0,0.0,76,0.00,,,0.00,weatherlink.com 1.10,2013-01-23 21:59:00,